Time;durP1;ratioP1;P1;durP2;ratioP2;P2;SDS_P1;SDS_P2;PMS_P1;PMS_P2;Temp;Humidity;BMP_temperature;BMP_pressure;BME280_temperature;BME280_humidity;BME280_pressure;Samples;Min_cycle;Max_cycle;Signal;HPM_P1;HPM_P2
2022/03/13 00:01:01;;;;;;;54.65;27.10;;;22.80;31.70;;;;;;6161843;28;83043;-74
2022/03/13 00:04:02;;;;;;;49.70;25.45;;;22.80;31.60;;;;;;6135169;28;83262;-74
2022/03/13 00:07:04;;;;;;;54.58;27.88;;;22.80;31.70;;;;;;6138412;28;83789;-73
2022/03/13 00:10:05;;;;;;;49.15;25.10;;;22.80;31.60;;;;;;6155463;28;83614;-76
2022/03/13 00:13:05;;;;;;;51.85;26.88;;;22.80;31.60;;;;;;6151278;28;83905;-74
2022/03/13 00:16:09;;;;;;;51.95;26.52;;;22.80;31.80;;;;;;6145620;28;82998;-76
2022/03/13 00:19:11;;;;;;;46.90;23.55;;;22.80;31.60;;;;;;6156734;28;82972;-74
2022/03/13 00:22:13;;;;;;;50.38;26.52;;;22.80;31.70;;;;;;6143356;28;84168;-75
2022/03/13 00:25:14;;;;;;;45.53;26.40;;;22.70;30.90;;;;;;6140181;28;82920;-69
2022/03/13 00:28:15;;;;;;;53.97;25.83;;;22.70;31.60;;;;;;6137897;28;84820;-72
2022/03/13 00:31:15;;;;;;;45.65;24.90;;;22.70;31.10;;;;;;6142023;28;83192;-74
2022/03/13 00:34:16;;;;;;;50.58;26.33;;;22.70;31.20;;;;;;6132926;28;83539;-76
2022/03/13 00:37:17;;;;;;;51.75;26.25;;;22.70;31.10;;;;;;6132777;28;83896;-76
2022/03/13 00:40:18;;;;;;;52.00;26.80;;;22.70;31.30;;;;;;6136472;28;84142;-75
2022/03/13 00:43:20;;;;;;;51.05;27.40;;;22.70;31.40;;;;;;6157277;28;83128;-72
2022/03/13 00:46:20;;;;;;;59.63;29.70;;;22.70;31.20;;;;;;6141617;28;82881;-73
2022/03/13 00:49:21;;;;;;;55.40;28.38;;;22.70;31.30;;;;;;6144503;28;83090;-74
2022/03/13 00:52:21;;;;;;;54.05;28.27;;;22.60;31.10;;;;;;6157075;28;83840;-73
2022/03/13 00:55:22;;;;;;;51.60;27.20;;;22.60;31.00;;;;;;6152480;28;82977;-74
2022/03/13 00:58:23;;;;;;;54.17;28.55;;;22.70;31.20;;;;;;6133073;28;84102;-76
2022/03/13 01:01:24;;;;;;;56.20;29.13;;;22.70;31.20;;;;;;6150673;28;83862;-77
2022/03/13 01:04:24;;;;;;;50.90;27.52;;;22.60;31.20;;;;;;6140679;28;83643;-74
2022/03/13 01:07:25;;;;;;;53.40;27.85;;;22.60;30.70;;;;;;6156189;28;83277;-73
2022/03/13 01:10:25;;;;;;;53.05;28.25;;;22.60;30.90;;;;;;6151358;28;82862;-74
2022/03/13 01:13:26;;;;;;;58.42;29.38;;;22.60;31.00;;;;;;6132471;28;83364;-73
2022/03/13 01:16:27;;;;;;;54.83;30.67;;;22.60;31.00;;;;;;6144736;28;83438;-74
2022/03/13 01:19:27;;;;;;;57.65;30.00;;;22.60;30.80;;;;;;6134949;28;85884;-73
2022/03/13 01:22:28;;;;;;;60.45;30.15;;;22.70;31.30;;;;;;6132078;28;83253;-74
2022/03/13 01:25:28;;;;;;;60.65;31.02;;;22.60;30.90;;;;;;6149513;28;83124;-74
2022/03/13 01:28:32;;;;;;;56.75;29.98;;;22.60;30.90;;;;;;6153648;28;83165;-74
2022/03/13 01:31:33;;;;;;;60.97;31.05;;;22.60;30.90;;;;;;6144922;28;82973;-74
2022/03/13 01:34:37;;;;;;;59.63;30.45;;;22.60;30.90;;;;;;6145702;28;83134;-74
2022/03/13 01:37:38;;;;;;;63.60;31.85;;;22.60;31.10;;;;;;6131277;28;83396;-75
2022/03/13 01:40:38;;;;;;;63.78;30.83;;;22.60;30.90;;;;;;6149333;28;83140;-75
2022/03/13 01:43:39;;;;;;;54.63;29.20;;;22.60;30.90;;;;;;6156197;28;82983;-75
2022/03/13 01:46:39;;;;;;;61.83;31.20;;;22.60;31.00;;;;;;6156393;28;82972;-75
2022/03/13 01:49:40;;;;;;;61.22;29.92;;;22.50;31.00;;;;;;6146261;28;82971;-75
2022/03/13 01:52:40;;;;;;;54.70;29.50;;;22.50;31.20;;;;;;6132080;28;83092;-74
2022/03/13 01:55:41;;;;;;;59.78;30.70;;;22.50;31.00;;;;;;6139323;28;90669;-73
2022/03/13 01:58:42;;;;;;;60.47;31.42;;;22.50;31.10;;;;;;6135047;28;83331;-74
2022/03/13 02:01:44;;;;;;;60.55;31.33;;;22.50;31.10;;;;;;6137095;28;83091;-73
2022/03/13 02:04:44;;;;;;;61.60;29.50;;;22.50;31.40;;;;;;6145013;28;84450;-73
2022/03/13 02:07:45;;;;;;;56.80;29.42;;;22.50;31.30;;;;;;6143670;28;83092;-73
2022/03/13 02:10:46;;;;;;;58.05;29.92;;;22.60;31.50;;;;;;6140391;28;83072;-73
2022/03/13 02:13:47;;;;;;;57.40;29.83;;;22.60;31.50;;;;;;6157324;28;83127;-73
2022/03/13 02:16:48;;;;;;;53.92;28.25;;;22.60;31.50;;;;;;6139394;28;83121;-74
2022/03/13 02:19:49;;;;;;;53.72;27.60;;;22.50;31.50;;;;;;6141201;28;83347;-73
2022/03/13 02:22:49;;;;;;;53.63;26.52;;;22.50;31.40;;;;;;6155440;28;83954;-74
2022/03/13 02:25:50;;;;;;;52.08;27.48;;;22.50;31.40;;;;;;6155672;28;83382;-74
2022/03/13 02:28:51;;;;;;;53.08;27.95;;;22.50;31.40;;;;;;6155047;28;84878;-74
2022/03/13 02:31:51;;;;;;;51.65;27.15;;;22.40;31.40;;;;;;6155695;28;83147;-75
2022/03/13 02:34:52;;;;;;;49.55;26.58;;;22.50;31.40;;;;;;6150113;28;83446;-75
2022/03/13 02:37:53;;;;;;;54.47;28.38;;;22.50;31.40;;;;;;6142252;28;83421;-75
2022/03/13 02:40:53;;;;;;;55.00;28.60;;;22.50;31.40;;;;;;6160010;28;83192;-75
2022/03/13 02:43:54;;;;;;;52.58;28.33;;;22.50;31.40;;;;;;6158663;28;83085;-76
2022/03/13 02:46:55;;;;;;;49.42;26.08;;;22.50;31.40;;;;;;6138392;28;83398;-75
2022/03/13 02:49:55;;;;;;;51.45;26.85;;;22.50;31.20;;;;;;6143766;28;84588;-75
2022/03/13 02:52:56;;;;;;;50.42;25.80;;;22.50;31.20;;;;;;6158117;28;83137;-73
2022/03/13 02:55:56;;;;;;;48.72;27.00;;;22.50;31.40;;;;;;6149325;28;83358;-73
2022/03/13 02:58:57;;;;;;;59.92;28.63;;;22.50;31.10;;;;;;6159663;28;83352;-74
2022/03/13 03:01:57;;;;;;;47.60;26.67;;;22.50;31.20;;;;;;6157783;28;83289;-74
2022/03/13 03:04:58;;;;;;;58.22;29.73;;;22.50;31.20;;;;;;6155680;28;83391;-74
2022/03/13 03:07:58;;;;;;;51.80;28.27;;;22.50;31.00;;;;;;6137648;28;83056;-73
2022/03/13 03:10:59;;;;;;;53.85;27.50;;;22.40;31.00;;;;;;6143219;28;83118;-72
2022/03/13 03:14:00;;;;;;;54.35;27.92;;;22.40;30.90;;;;;;6133777;28;82855;-73
2022/03/13 03:17:00;;;;;;;53.45;27.77;;;22.40;30.80;;;;;;6132458;28;84337;-72
2022/03/13 03:20:01;;;;;;;55.83;28.35;;;22.40;30.70;;;;;;6155471;28;84259;-72
2022/03/13 03:23:01;;;;;;;49.25;26.60;;;22.40;30.60;;;;;;6152805;28;83276;-72
2022/03/13 03:26:03;;;;;;;52.60;28.17;;;22.40;30.60;;;;;;6150571;28;83350;-72
2022/03/13 03:29:04;;;;;;;51.60;27.52;;;22.40;30.40;;;;;;6153390;28;83109;-73
2022/03/13 03:32:04;;;;;;;58.17;29.00;;;22.40;30.40;;;;;;6157494;28;83095;-73
2022/03/13 03:35:05;;;;;;;55.40;28.55;;;22.40;30.30;;;;;;6136453;28;83425;-73
2022/03/13 03:38:05;;;;;;;55.22;29.85;;;22.30;30.60;;;;;;6134123;28;83184;-73
2022/03/13 03:41:06;;;;;;;54.38;28.90;;;22.30;30.50;;;;;;6152506;28;84783;-73
2022/03/13 03:44:07;;;;;;;53.10;28.38;;;22.40;30.50;;;;;;6146177;28;83144;-73
2022/03/13 03:47:07;;;;;;;59.80;29.30;;;22.30;30.50;;;;;;6133899;28;83066;-73
2022/03/13 03:50:08;;;;;;;51.78;28.98;;;22.30;30.50;;;;;;6133663;28;85033;-73
2022/03/13 03:53:08;;;;;;;57.70;30.23;;;22.30;30.50;;;;;;6155714;28;82973;-73
2022/03/13 03:56:09;;;;;;;60.28;29.80;;;22.30;30.60;;;;;;6131995;28;84157;-74
2022/03/13 03:59:09;;;;;;;58.22;30.30;;;22.30;31.00;;;;;;6143217;28;83044;-73
2022/03/13 04:02:10;;;;;;;53.20;28.90;;;22.30;30.60;;;;;;6158608;28;83156;-73
2022/03/13 04:05:11;;;;;;;56.25;29.55;;;22.30;30.40;;;;;;6139691;28;82864;-73
2022/03/13 04:08:12;;;;;;;58.35;29.83;;;22.30;30.30;;;;;;6135271;28;89164;-73
2022/03/13 04:11:12;;;;;;;62.10;28.73;;;22.20;30.40;;;;;;6156455;28;83487;-73
2022/03/13 04:14:14;;;;;;;55.95;29.27;;;22.30;30.40;;;;;;6158033;28;83500;-72
2022/03/13 04:17:14;;;;;;;62.65;30.02;;;22.30;30.90;;;;;;6158183;28;84160;-72
2022/03/13 04:20:15;;;;;;;59.13;30.33;;;22.40;30.60;;;;;;6157527;28;84542;-71
2022/03/13 04:23:15;;;;;;;55.78;30.40;;;22.40;30.30;;;;;;6153125;28;83508;-71
2022/03/13 04:26:16;;;;;;;62.60;30.90;;;22.50;30.00;;;;;;6140220;28;83013;-69
2022/03/13 04:29:16;;;;;;;56.88;29.70;;;22.50;29.60;;;;;;6153800;28;87889;-69
2022/03/13 04:32:23;;;;;;;64.47;30.52;;;22.60;29.50;;;;;;6134296;28;82838;-72
2022/03/13 04:35:24;;;;;;;59.63;31.15;;;22.60;29.40;;;;;;6133649;28;83266;-72
2022/03/13 04:38:25;;;;;;;57.45;30.55;;;22.70;29.40;;;;;;6145648;28;83148;-73
2022/03/13 04:41:25;;;;;;;59.63;31.20;;;22.70;29.30;;;;;;6156714;28;83313;-71
2022/03/13 04:44:26;;;;;;;57.70;30.35;;;22.80;29.20;;;;;;6154736;28;83347;-70
2022/03/13 04:47:31;;;;;;;58.15;29.75;;;22.80;29.10;;;;;;6155951;28;84751;-70
2022/03/13 04:50:31;;;;;;;57.88;29.42;;;22.80;29.10;;;;;;6152225;28;83474;-71
2022/03/13 04:53:32;;;;;;;60.70;30.73;;;22.80;29.00;;;;;;6155132;28;84358;-72
2022/03/13 04:56:32;;;;;;;63.50;30.17;;;22.80;28.90;;;;;;6142756;28;84580;-73
2022/03/13 04:59:34;;;;;;;64.80;31.10;;;22.90;28.80;;;;;;6156249;28;83203;-72
2022/03/13 05:02:35;;;;;;;54.30;29.15;;;22.90;28.70;;;;;;6134725;28;82828;-73
2022/03/13 05:05:36;;;;;;;64.15;34.20;;;22.90;28.60;;;;;;6151997;28;83114;-72
2022/03/13 05:08:36;;;;;;;62.15;33.05;;;22.90;28.50;;;;;;6156870;28;85195;-71
2022/03/13 05:11:40;;;;;;;59.10;30.98;;;23.00;28.60;;;;;;6155391;28;83047;-72
2022/03/13 05:14:41;;;;;;;61.08;29.90;;;23.00;28.70;;;;;;6158108;28;83090;-73
2022/03/13 05:17:41;;;;;;;61.45;30.10;;;23.00;28.70;;;;;;6156942;28;84090;-74
2022/03/13 05:20:42;;;;;;;57.40;29.92;;;23.00;29.30;;;;;;6157473;28;83568;-76
2022/03/13 05:23:43;;;;;;;53.42;28.13;;;23.00;29.10;;;;;;6158692;28;83265;-77
2022/03/13 05:26:45;;;;;;;54.17;29.92;;;23.00;29.20;;;;;;6149407;28;83117;-76
2022/03/13 05:29:45;;;;;;;56.00;27.58;;;23.00;29.00;;;;;;6140463;28;83000;-75
2022/03/13 05:32:46;;;;;;;55.42;29.25;;;23.00;28.90;;;;;;6149142;28;84188;-74
2022/03/13 05:35:46;;;;;;;54.42;27.30;;;23.00;28.90;;;;;;6145877;28;83507;-74
2022/03/13 05:38:47;;;;;;;50.47;27.77;;;23.10;28.90;;;;;;6148214;28;83140;-74
2022/03/13 05:41:51;;;;;;;48.40;26.33;;;23.00;28.80;;;;;;6155097;28;82946;-76
2022/03/13 05:44:51;;;;;;;52.17;26.83;;;23.00;28.70;;;;;;6152478;28;83272;-76
2022/03/13 05:47:52;;;;;;;53.95;27.55;;;23.10;28.80;;;;;;6159627;28;83058;-74
2022/03/13 05:50:53;;;;;;;48.30;25.05;;;23.10;28.90;;;;;;6140163;28;83294;-73
2022/03/13 05:53:53;;;;;;;46.80;25.30;;;23.10;29.20;;;;;;6147919;28;82875;-74
2022/03/13 05:56:54;;;;;;;53.40;26.05;;;23.10;29.30;;;;;;6131231;28;83388;-75
2022/03/13 05:59:55;;;;;;;47.13;24.40;;;23.10;29.50;;;;;;6144890;28;83267;-71
2022/03/13 06:02:56;;;;;;;48.92;23.95;;;23.10;29.80;;;;;;6137747;28;84412;-70
2022/03/13 06:05:57;;;;;;;47.40;21.67;;;23.10;31.10;;;;;;6144360;28;83277;-73
2022/03/13 06:08:58;;;;;;;43.78;20.20;;;23.10;32.40;;;;;;6145097;28;82994;-73
2022/03/13 06:11:59;;;;;;;30.15;17.05;;;23.10;33.50;;;;;;6142858;28;82926;-71
2022/03/13 06:14:59;;;;;;;35.13;16.60;;;23.10;33.90;;;;;;6154806;28;82977;-74
2022/03/13 06:18:01;;;;;;;30.70;16.05;;;23.10;34.90;;;;;;6147578;28;83328;-72
2022/03/13 06:21:02;;;;;;;25.48;13.63;;;23.00;35.10;;;;;;6145779;28;90613;-74
2022/03/13 06:24:02;;;;;;;26.85;13.98;;;23.00;35.70;;;;;;6159694;28;83004;-74
2022/03/13 06:27:05;;;;;;;28.73;14.20;;;23.00;35.90;;;;;;6159817;28;83019;-74
2022/03/13 06:30:12;;;;;;;26.20;13.45;;;23.00;36.20;;;;;;6137035;28;83109;-72
2022/03/13 06:33:13;;;;;;;25.92;13.30;;;23.00;36.70;;;;;;6150176;28;83094;-72
2022/03/13 06:36:13;;;;;;;20.88;11.93;;;23.00;37.10;;;;;;6147194;28;84599;-71
2022/03/13 06:39:14;;;;;;;23.95;12.45;;;22.90;37.20;;;;;;6153343;28;83782;-73
2022/03/13 06:42:15;;;;;;;23.65;12.55;;;23.00;37.40;;;;;;6149772;28;83180;-72
2022/03/13 06:45:15;;;;;;;25.02;13.85;;;22.90;37.50;;;;;;6158495;28;83440;-75
2022/03/13 06:48:21;;;;;;;29.42;13.60;;;22.90;37.90;;;;;;6163940;28;83024;-76
2022/03/13 06:51:23;;;;;;;24.90;13.52;;;22.90;38.00;;;;;;6161566;28;82638;-75
2022/03/13 06:54:24;;;;;;;28.05;14.90;;;22.90;38.30;;;;;;6138553;28;83383;-73
2022/03/13 06:57:24;;;;;;;24.83;13.75;;;22.90;38.50;;;;;;6135133;28;83160;-74
2022/03/13 07:00:25;;;;;;;26.08;13.52;;;22.80;39.10;;;;;;6145384;28;85783;-72
2022/03/13 07:03:25;;;;;;;26.13;14.50;;;22.80;39.70;;;;;;6148604;28;83230;-74
2022/03/13 07:06:26;;;;;;;28.90;14.82;;;22.80;40.00;;;;;;6142208;28;84442;-68
2022/03/13 07:09:26;;;;;;;28.02;15.27;;;22.80;39.70;;;;;;6152896;28;84236;-74
2022/03/13 07:12:27;;;;;;;30.88;14.93;;;22.80;39.70;;;;;;6149109;28;83018;-73
2022/03/13 07:15:30;;;;;;;30.25;15.88;;;22.80;39.90;;;;;;6139213;28;83611;-72
2022/03/13 07:18:30;;;;;;;32.30;17.75;;;22.80;40.10;;;;;;6140913;28;83504;-74
2022/03/13 07:21:33;;;;;;;29.95;16.15;;;22.70;39.90;;;;;;6152185;28;83170;-73
2022/03/13 07:24:33;;;;;;;32.58;16.20;;;22.70;39.90;;;;;;6155385;28;84820;-73
2022/03/13 07:27:34;;;;;;;27.83;16.13;;;22.80;39.60;;;;;;6156541;28;83121;-76
2022/03/13 07:30:34;;;;;;;30.45;16.25;;;22.80;39.70;;;;;;6156438;28;83162;-76
2022/03/13 07:33:35;;;;;;;33.05;17.17;;;22.80;39.40;;;;;;6152736;28;83812;-76
2022/03/13 07:36:35;;;;;;;30.70;16.05;;;22.80;39.30;;;;;;6155703;28;84685;-74
2022/03/13 07:39:36;;;;;;;32.47;15.95;;;22.80;39.70;;;;;;6154445;28;83430;-73
2022/03/13 07:42:37;;;;;;;31.50;16.45;;;22.80;39.40;;;;;;6155870;28;83454;-73
2022/03/13 07:45:38;;;;;;;32.35;17.25;;;22.80;39.70;;;;;;6157996;28;83959;-77
2022/03/13 07:48:39;;;;;;;31.55;16.52;;;22.80;39.60;;;;;;6145611;28;82929;-73
2022/03/13 07:51:39;;;;;;;36.25;18.42;;;22.80;39.70;;;;;;6165802;28;84352;-71
2022/03/13 07:54:40;;;;;;;36.63;16.40;;;22.80;39.60;;;;;;6155001;28;83925;-73
2022/03/13 07:57:40;;;;;;;34.47;18.15;;;22.80;39.70;;;;;;6153574;28;82786;-77
2022/03/13 08:00:41;;;;;;;30.15;17.27;;;22.80;39.70;;;;;;6153416;28;83197;-74
2022/03/13 08:03:44;;;;;;;33.42;16.40;;;22.80;39.70;;;;;;6140702;28;84823;-72
2022/03/13 08:06:45;;;;;;;31.67;16.33;;;22.80;39.70;;;;;;6140877;28;83159;-74
2022/03/13 08:09:45;;;;;;;31.00;16.77;;;22.80;39.90;;;;;;6147724;28;84290;-74
2022/03/13 08:12:46;;;;;;;35.15;16.83;;;22.80;40.00;;;;;;6135582;28;84061;-74
2022/03/13 08:15:46;;;;;;;29.40;15.45;;;22.90;40.10;;;;;;6131437;28;84073;-72
2022/03/13 08:18:47;;;;;;;32.42;17.13;;;22.90;40.20;;;;;;6135288;28;83267;-72
2022/03/13 08:21:47;;;;;;;30.38;16.70;;;22.90;40.30;;;;;;6137907;28;83081;-71
2022/03/13 08:24:48;;;;;;;26.25;14.88;;;22.90;40.30;;;;;;6143317;28;83441;-73
2022/03/13 08:27:48;;;;;;;32.97;17.23;;;22.90;40.40;;;;;;6136676;28;83942;-74
2022/03/13 08:30:49;;;;;;;32.08;18.15;;;22.90;40.20;;;;;;6149752;28;82952;-71
2022/03/13 08:33:50;;;;;;;29.30;16.13;;;22.90;39.90;;;;;;6137660;28;84094;-68
2022/03/13 08:36:51;;;;;;;41.05;18.70;;;22.90;40.20;;;;;;6143084;28;83580;-68
2022/03/13 08:39:52;;;;;;;37.35;17.55;;;22.90;40.00;;;;;;6147326;28;83673;-74
2022/03/13 08:42:52;;;;;;;49.53;21.08;;;22.90;39.90;;;;;;6137941;28;83274;-68
2022/03/13 08:45:53;;;;;;;37.33;19.92;;;22.90;39.70;;;;;;6153393;28;83209;-67
2022/03/13 08:48:56;;;;;;;37.95;20.90;;;22.90;39.70;;;;;;6155247;28;83387;-65
2022/03/13 08:51:56;;;;;;;39.30;19.40;;;22.90;39.90;;;;;;6158454;28;83496;-75
2022/03/13 08:54:57;;;;;;;41.97;20.67;;;23.00;40.10;;;;;;6158628;28;83074;-76
2022/03/13 08:57:57;;;;;;;38.25;19.88;;;23.00;39.70;;;;;;6155742;28;83376;-72
2022/03/13 09:00:58;;;;;;;35.10;18.60;;;22.90;39.80;;;;;;6157642;28;83430;-66
2022/03/13 09:03:59;;;;;;;39.92;20.02;;;22.80;40.40;;;;;;6148663;28;83290;-73
2022/03/13 09:06:59;;;;;;;37.17;19.67;;;22.90;40.10;;;;;;6134342;28;83318;-74
2022/03/13 09:10:01;;;;;;;80.75;35.72;;;22.80;40.00;;;;;;6133681;28;83435;-76
2022/03/13 09:13:01;;;;;;;316.08;123.13;;;22.80;41.00;;;;;;6140490;28;84214;-74
2022/03/13 09:16:02;;;;;;;432.50;173.18;;;22.70;41.30;;;;;;6153805;28;85337;-74
2022/03/13 09:19:02;;;;;;;387.95;150.35;;;22.70;40.80;;;;;;6150368;28;85762;-73
2022/03/13 09:22:03;;;;;;;344.10;135.73;;;22.80;40.80;;;;;;6130650;28;86343;-73
2022/03/13 09:25:04;;;;;;;498.52;198.02;;;22.80;41.10;;;;;;6134905;28;85366;-71
2022/03/13 09:28:04;;;;;;;673.45;292.58;;;22.80;41.30;;;;;;6130627;28;85388;-72
2022/03/13 09:31:06;;;;;;;648.58;286.95;;;22.80;41.10;;;;;;6152551;28;85259;-71
2022/03/13 09:34:06;;;;;;;543.45;229.02;;;22.80;40.90;;;;;;6154018;28;86795;-71
2022/03/13 09:37:07;;;;;;;476.67;183.05;;;22.90;40.70;;;;;;6154517;28;85423;-73
2022/03/13 09:40:09;;;;;;;384.88;145.50;;;22.90;40.60;;;;;;6142601;28;85520;-72
2022/03/13 09:43:09;;;;;;;302.75;115.60;;;22.90;39.80;;;;;;6154233;28;85397;-74
2022/03/13 09:46:10;;;;;;;233.68;96.00;;;22.80;40.40;;;;;;6142290;28;85425;-73
2022/03/13 09:49:11;;;;;;;220.75;83.78;;;22.80;40.20;;;;;;6132031;28;85310;-73
2022/03/13 09:52:11;;;;;;;181.55;72.05;;;22.80;40.50;;;;;;6140982;28;83311;-74
2022/03/13 09:55:12;;;;;;;147.27;62.92;;;22.80;40.30;;;;;;6144749;28;83611;-72
2022/03/13 09:58:14;;;;;;;129.10;51.70;;;22.80;40.20;;;;;;6137151;28;82901;-72
2022/03/13 10:01:14;;;;;;;122.65;51.85;;;22.90;40.10;;;;;;6155597;28;84231;-72
2022/03/13 10:04:15;;;;;;;125.53;46.95;;;23.10;41.10;;;;;;6152906;28;83913;-70
2022/03/13 10:07:16;;;;;;;106.38;40.97;;;23.20;40.30;;;;;;6156650;28;83333;-69
2022/03/13 10:10:16;;;;;;;86.95;35.38;;;23.40;39.00;;;;;;6154454;28;85058;-71
2022/03/13 10:13:17;;;;;;;67.57;30.00;;;23.40;37.90;;;;;;6135050;28;82947;-71
2022/03/13 10:16:20;;;;;;;67.05;27.58;;;23.50;36.80;;;;;;6149355;28;83052;-72
2022/03/13 10:19:22;;;;;;;50.95;23.45;;;23.50;36.10;;;;;;6152208;28;83232;-70
2022/03/13 10:22:23;;;;;;;44.28;20.92;;;23.60;35.50;;;;;;6152024;28;84529;-72
2022/03/13 10:25:23;;;;;;;46.10;18.77;;;23.60;35.00;;;;;;6153592;28;82938;-71
2022/03/13 10:28:24;;;;;;;39.38;17.85;;;23.60;34.30;;;;;;6140778;28;82910;-71
2022/03/13 10:31:25;;;;;;;30.67;15.93;;;23.60;33.80;;;;;;6148946;28;84327;-72
2022/03/13 10:34:26;;;;;;;29.20;15.35;;;23.70;33.70;;;;;;6149471;28;83984;-76
2022/03/13 10:37:27;;;;;;;27.35;13.57;;;23.70;32.80;;;;;;6139322;28;83248;-76
2022/03/13 10:40:28;;;;;;;25.98;13.13;;;23.70;33.00;;;;;;6150018;28;83630;-74
2022/03/13 10:43:29;;;;;;;24.33;12.32;;;23.80;33.90;;;;;;6155037;28;83148;-74
2022/03/13 10:46:30;;;;;;;23.17;11.68;;;23.70;34.40;;;;;;6145695;28;83086;-74
2022/03/13 10:49:31;;;;;;;21.08;10.73;;;23.80;34.90;;;;;;6140247;28;82922;-75
2022/03/13 10:52:32;;;;;;;17.67;9.32;;;23.80;35.50;;;;;;6149617;28;83349;-77
2022/03/13 10:55:32;;;;;;;19.02;9.70;;;23.90;35.40;;;;;;6146310;28;82850;-73
2022/03/13 10:58:35;;;;;;;16.88;8.35;;;23.90;35.00;;;;;;6155485;28;80178;-76
2022/03/13 11:01:35;;;;;;;16.63;8.30;;;23.90;35.30;;;;;;6146584;28;80186;-74
2022/03/13 11:04:36;;;;;;;17.20;7.38;;;23.90;35.10;;;;;;6152392;28;80641;-75
2022/03/13 11:07:37;;;;;;;12.55;7.15;;;23.90;35.20;;;;;;6158374;28;80784;-75
2022/03/13 11:10:37;;;;;;;15.38;6.70;;;23.90;35.20;;;;;;6173776;28;81037;-74
2022/03/13 11:13:42;;;;;;;10.68;6.70;;;23.90;35.40;;;;;;6171838;28;80431;-75
2022/03/13 11:16:42;;;;;;;13.15;7.07;;;24.00;35.90;;;;;;6168630;28;81376;-71
2022/03/13 11:19:43;;;;;;;12.80;7.15;;;23.80;29.00;;;;;;6166279;28;80510;-76
2022/03/13 11:22:43;;;;;;;18.35;8.63;;;23.30;28.40;;;;;;6161595;28;80436;-77
2022/03/13 11:25:44;;;;;;;16.05;8.02;;;23.40;28.40;;;;;;6160320;28;80494;-77
2022/03/13 11:28:44;;;;;;;16.70;7.95;;;23.50;28.00;;;;;;6157475;28;81517;-73
2022/03/13 11:31:47;;;;;;;13.10;7.95;;;23.40;28.00;;;;;;6152105;28;83696;-75
2022/03/13 11:34:47;;;;;;;15.85;7.90;;;23.50;28.30;;;;;;6149650;28;81303;-74
2022/03/13 11:37:48;;;;;;;16.77;8.43;;;23.40;27.90;;;;;;6161125;28;80529;-76
2022/03/13 11:40:50;;;;;;;16.85;9.32;;;23.30;27.70;;;;;;6159277;28;80404;-75
2022/03/13 11:43:51;;;;;;;14.70;8.48;;;23.30;27.60;;;;;;6160562;28;82096;-73
2022/03/13 11:46:51;;;;;;;14.07;8.20;;;23.30;28.30;;;;;;6159046;28;87842;-76
2022/03/13 11:49:52;;;;;;;12.77;7.55;;;23.30;30.00;;;;;;6157380;28;80336;-68
2022/03/13 11:52:54;;;;;;;15.55;8.45;;;23.30;30.90;;;;;;6161230;28;80382;-68
2022/03/13 11:55:54;;;;;;;23.38;11.65;;;23.40;29.60;;;;;;6158700;28;80474;-69
2022/03/13 11:58:55;;;;;;;16.50;9.80;;;23.30;27.90;;;;;;6158213;28;83024;-64
2022/03/13 12:01:55;;;;;;;18.15;9.23;;;23.30;28.10;;;;;;6142692;28;83065;-64
2022/03/13 12:04:56;;;;;;;17.10;8.57;;;23.40;28.80;;;;;;6146099;28;80949;-64
2022/03/13 12:07:57;;;;;;;17.55;7.53;;;23.40;30.70;;;;;;6145507;28;80468;-64
2022/03/13 12:10:57;;;;;;;15.00;6.97;;;23.60;33.60;;;;;;6148868;28;81301;-73
2022/03/13 12:13:59;;;;;;;12.35;5.60;;;23.60;34.70;;;;;;6153518;28;81658;-75
2022/03/13 12:16:59;;;;;;;10.98;5.78;;;23.70;36.10;;;;;;6143722;28;80246;-73
2022/03/13 12:20:00;;;;;;;11.35;5.82;;;23.80;37.00;;;;;;6146581;28;81414;-72
2022/03/13 12:23:00;;;;;;;10.35;5.93;;;23.90;38.00;;;;;;6148703;28;81538;-73
2022/03/13 12:26:01;;;;;;;13.43;6.85;;;23.90;38.10;;;;;;6147327;28;80646;-70
2022/03/13 12:29:04;;;;;;;9.63;5.82;;;24.00;38.20;;;;;;6146407;28;80486;-74
2022/03/13 12:32:04;;;;;;;12.05;7.07;;;24.00;37.90;;;;;;6148176;28;80880;-69
2022/03/13 12:35:05;;;;;;;11.55;6.65;;;24.00;37.40;;;;;;6149663;28;82614;-76
2022/03/13 12:38:05;;;;;;;12.38;7.47;;;24.00;37.10;;;;;;6150285;28;80900;-74
2022/03/13 12:41:09;;;;;;;18.27;8.05;;;24.00;32.60;;;;;;6150867;28;80640;-72
2022/03/13 12:44:09;;;;;;;14.52;7.68;;;24.00;32.50;;;;;;6161540;28;80699;-72
2022/03/13 12:47:10;;;;;;;14.38;8.25;;;24.00;31.50;;;;;;6161610;28;80288;-76
2022/03/13 12:50:11;;;;;;;12.55;7.50;;;23.90;29.70;;;;;;6154344;28;80523;-77
2022/03/13 12:53:12;;;;;;;11.18;6.88;;;23.90;29.20;;;;;;6161850;28;81717;-76
2022/03/13 12:56:13;;;;;;;13.00;6.95;;;24.00;27.00;;;;;;6160891;28;80531;-76
2022/03/13 12:59:14;;;;;;;12.38;7.22;;;23.30;26.80;;;;;;6159157;28;81786;-72
2022/03/13 13:02:16;;;;;;;14.27;7.20;;;23.50;27.90;;;;;;6136231;28;80433;-74
2022/03/13 13:05:16;;;;;;;12.75;6.60;;;23.70;28.10;;;;;;6136922;28;80348;-74
2022/03/13 13:08:17;;;;;;;14.38;7.75;;;23.70;27.90;;;;;;6136465;28;84053;-73
2022/03/13 13:11:18;;;;;;;12.77;7.50;;;23.30;25.60;;;;;;6141180;28;80518;-72
2022/03/13 13:14:18;;;;;;;12.15;6.43;;;23.00;25.50;;;;;;6137315;28;81215;-63
2022/03/13 13:17:20;;;;;;;12.85;7.18;;;23.50;28.20;;;;;;6139873;28;80325;-66
2022/03/13 13:20:21;;;;;;;13.88;6.38;;;23.80;28.20;;;;;;6154923;28;80624;-67
2022/03/13 13:23:21;;;;;;;13.70;5.70;;;23.80;26.90;;;;;;6136613;28;80298;-64
2022/03/13 13:26:22;;;;;;;11.65;6.13;;;23.80;28.60;;;;;;6143676;28;80462;-64
2022/03/13 13:29:23;;;;;;;73.35;31.42;;;23.80;27.20;;;;;;6136973;28;80457;-72
2022/03/13 13:32:23;;;;;;;212.15;77.72;;;23.80;28.70;;;;;;6149861;28;83470;-67
2022/03/13 13:35:24;;;;;;;168.00;62.95;;;23.90;28.30;;;;;;6156422;28;83130;-69
2022/03/13 13:38:24;;;;;;;114.28;44.75;;;23.90;28.30;;;;;;6144584;28;83153;-71
2022/03/13 13:41:25;;;;;;;236.07;95.07;;;24.00;26.50;;;;;;6152608;28;84818;-67
2022/03/13 13:44:26;;;;;;;316.15;124.22;;;23.90;26.20;;;;;;6155098;28;85758;-67
2022/03/13 13:47:26;;;;;;;242.63;95.80;;;24.00;26.40;;;;;;6153936;28;85603;-68
2022/03/13 13:50:27;;;;;;;193.10;75.65;;;23.80;25.60;;;;;;6144668;28;85601;-71
2022/03/13 13:53:28;;;;;;;155.48;62.30;;;23.80;25.00;;;;;;6149789;28;84074;-67
2022/03/13 13:56:28;;;;;;;154.40;59.22;;;23.80;24.80;;;;;;6131858;28;83267;-64
2022/03/13 13:59:29;;;;;;;126.30;49.05;;;23.90;25.70;;;;;;6141078;28;84533;-67
2022/03/13 14:02:30;;;;;;;119.68;46.88;;;23.90;25.90;;;;;;6147781;28;84485;-69
2022/03/13 14:05:31;;;;;;;104.60;39.05;;;24.00;26.40;;;;;;6151444;28;84241;-68
2022/03/13 14:08:31;;;;;;;60.67;25.50;;;24.10;26.70;;;;;;6149777;28;83316;-67
2022/03/13 14:11:32;;;;;;;57.47;24.42;;;24.10;25.40;;;;;;6140231;28;85117;-69
2022/03/13 14:14:33;;;;;;;46.72;20.05;;;24.10;25.60;;;;;;6130309;28;83561;-69
2022/03/13 14:17:34;;;;;;;42.42;18.70;;;24.10;25.10;;;;;;6144505;28;83011;-69
2022/03/13 14:20:35;;;;;;;35.78;16.58;;;24.00;25.20;;;;;;6150388;28;83407;-68
2022/03/13 14:23:35;;;;;;;48.65;17.77;;;24.10;25.20;;;;;;6149246;28;84553;-65
2022/03/13 14:26:36;;;;;;;30.80;14.00;;;24.10;25.20;;;;;;6140302;28;84216;-65
2022/03/13 14:29:36;;;;;;;23.25;11.32;;;24.10;24.80;;;;;;6152672;28;84043;-68
2022/03/13 14:32:37;;;;;;;24.38;11.65;;;24.10;24.40;;;;;;6132948;28;84344;-69
2022/03/13 14:35:37;;;;;;;25.65;11.48;;;24.10;24.50;;;;;;6150257;28;84082;-70
2022/03/13 14:38:38;;;;;;;20.88;10.02;;;24.10;24.60;;;;;;6132437;28;83318;-64
2022/03/13 14:41:39;;;;;;;19.80;9.68;;;24.10;24.60;;;;;;6146923;28;83416;-64
2022/03/13 14:44:40;;;;;;;17.45;9.85;;;24.20;24.80;;;;;;6154076;28;81759;-65
2022/03/13 14:47:40;;;;;;;17.77;9.35;;;24.20;24.60;;;;;;6143782;28;80435;-66
2022/03/13 14:50:43;;;;;;;15.23;8.20;;;24.20;24.60;;;;;;6149482;28;81490;-66
2022/03/13 14:53:43;;;;;;;24.45;9.73;;;24.20;24.60;;;;;;6145768;28;81990;-66
2022/03/13 14:56:44;;;;;;;17.63;8.93;;;24.20;24.80;;;;;;6141203;28;82124;-67
2022/03/13 14:59:44;;;;;;;17.25;9.63;;;24.20;24.70;;;;;;6151696;28;81892;-66
2022/03/13 15:02:45;;;;;;;17.02;8.95;;;24.30;25.00;;;;;;6153712;28;81450;-67
2022/03/13 15:05:46;;;;;;;16.42;9.23;;;24.30;25.10;;;;;;6158969;28;80511;-67
2022/03/13 15:08:47;;;;;;;19.30;8.52;;;24.30;25.10;;;;;;6158716;28;81504;-67
2022/03/13 15:11:48;;;;;;;14.48;8.88;;;24.30;25.00;;;;;;6158626;28;80426;-66
2022/03/13 15:14:49;;;;;;;15.27;9.00;;;24.30;25.10;;;;;;6144308;28;80361;-63
2022/03/13 15:17:51;;;;;;;14.75;8.60;;;24.30;25.30;;;;;;6162101;28;80160;-65